createdAt,value
2022-08-25T00:02:37.837Z,8.85
2022-08-25T00:07:41.833Z,5.43
2022-08-25T00:12:45.130Z,6.70
2022-08-25T00:17:50.642Z,5.10
2022-08-25T00:22:53.861Z,5.72
2022-08-25T00:28:03.077Z,5.60
2022-08-25T00:33:11.477Z,6.25
2022-08-25T00:38:15.363Z,5.50
2022-08-25T00:43:18.741Z,7.38
2022-08-25T00:48:23.971Z,7.50
2022-08-25T00:53:27.319Z,5.57
2022-08-25T00:58:31.203Z,7.07
2022-08-25T01:03:36.229Z,5.63
2022-08-25T01:08:40.075Z,6.78
2022-08-25T01:13:45.166Z,8.52
2022-08-25T01:18:50.785Z,8.32
2022-08-25T01:23:58.234Z,7.00
2022-08-25T01:29:20.660Z,6.43
2022-08-25T01:34:24.555Z,4.65
2022-08-25T01:39:30.367Z,5.57
2022-08-25T01:44:35.030Z,6.30
2022-08-25T01:49:39.476Z,6.38
2022-08-25T01:54:44.540Z,5.57
2022-08-25T01:59:48.313Z,8.55
2022-08-25T02:04:51.434Z,7.65
2022-08-25T02:09:57.044Z,6.22
2022-08-25T02:15:02.989Z,8.50
2022-08-25T02:20:06.931Z,5.95
2022-08-25T02:25:13.703Z,6.13
2022-08-25T02:30:18.698Z,6.10
2022-08-25T02:35:25.230Z,8.25
2022-08-25T02:40:30.544Z,8.27
2022-08-25T02:45:33.714Z,6.57
2022-08-25T02:50:38.107Z,7.07
2022-08-25T02:55:42.945Z,10.88
2022-08-25T03:00:46.541Z,6.93
2022-08-25T03:05:53.163Z,8.95
2022-08-25T03:10:58.263Z,7.60
2022-08-25T03:16:01.801Z,6.72
2022-08-25T03:21:06.531Z,6.28
2022-08-25T03:26:32.605Z,6.60
2022-08-25T03:31:36.695Z,7.32
2022-08-25T03:36:40.044Z,9.68
2022-08-25T03:41:44.992Z,8.98
2022-08-25T03:46:49.671Z,8.15
2022-08-25T03:51:55.800Z,11.38
2022-08-25T03:57:00.387Z,8.50
2022-08-25T04:02:03.692Z,8.23
2022-08-25T04:07:07.742Z,7.28
2022-08-25T04:12:12.603Z,6.93
2022-08-25T04:17:20.452Z,7.13
2022-08-25T04:22:23.702Z,7.57
2022-08-25T04:27:29.851Z,6.88
2022-08-25T04:32:33.519Z,7.53
2022-08-25T04:37:37.247Z,10.27
2022-08-25T04:42:41.806Z,10.95
2022-08-25T04:47:45.065Z,9.48
2022-08-25T04:52:49.447Z,9.68
2022-08-25T04:57:55.424Z,10.25
2022-08-25T05:02:59.125Z,7.70
2022-08-25T05:08:02.714Z,9.88
2022-08-25T05:13:07.486Z,9.80
2022-08-25T05:18:10.838Z,8.40
2022-08-25T05:23:15.350Z,12.07
2022-08-25T05:28:24.281Z,10.88
2022-08-25T05:33:27.596Z,12.85
2022-08-25T05:38:35.398Z,10.10
2022-08-25T05:43:40.082Z,9.10
2022-08-25T05:48:43.238Z,11.35
2022-08-25T05:53:49.359Z,12.90
2022-08-25T05:58:53.835Z,10.77
2022-08-25T06:03:57.199Z,16.90
2022-08-25T06:09:00.433Z,14.77
2022-08-25T06:14:05.388Z,16.15
2022-08-25T06:19:08.908Z,11.50
2022-08-25T06:24:15.553Z,6.57
2022-08-25T06:29:21.159Z,10.52
2022-08-25T06:34:24.524Z,10.68
2022-08-25T06:39:28.109Z,13.35
2022-08-25T06:44:32.569Z,14.07
2022-08-25T06:49:36.359Z,8.63
2022-08-25T06:54:40.445Z,9.80
2022-08-25T06:59:45.333Z,10.50
2022-08-25T07:04:48.908Z,7.45
2022-08-25T07:09:51.901Z,8.38
2022-08-25T07:15:17.084Z,5.05
2022-08-25T07:20:20.262Z,4.90
2022-08-25T07:25:24.225Z,5.88
2022-08-25T07:30:29.285Z,10.70
2022-08-25T07:35:37.575Z,7.32
2022-08-25T07:40:42.950Z,6.50
2022-08-25T07:51:14.335Z,11.07
2022-08-25T07:56:18.829Z,6.45
2022-08-25T08:01:24.264Z,5.20
2022-08-25T08:06:29.168Z,10.13
2022-08-25T08:11:34.571Z,5.55
2022-08-25T08:16:39.705Z,7.50
2022-08-25T08:21:43.147Z,8.43
2022-08-25T08:26:58.720Z,9.30
2022-08-25T08:32:03.974Z,7.82
2022-08-25T08:37:10.388Z,5.78
2022-08-25T08:42:25.169Z,5.55
2022-08-25T08:47:37.089Z,5.55
2022-08-25T08:52:46.043Z,7.65
2022-08-25T08:57:55.682Z,7.35
2022-08-25T09:03:04.053Z,8.02
2022-08-25T09:08:11.826Z,5.60
2022-08-25T09:13:18.147Z,4.60
2022-08-25T09:18:27.860Z,7.85
2022-08-25T09:23:40.002Z,3.85
2022-08-25T09:28:48.904Z,5.88
2022-08-25T09:33:58.090Z,3.75
2022-08-25T09:39:01.365Z,3.92
2022-08-25T09:44:06.933Z,7.57
2022-08-25T09:49:16.747Z,8.10
2022-08-25T09:54:25.388Z,4.65
2022-08-25T09:59:35.912Z,4.38
2022-08-25T10:04:41.009Z,4.23
2022-08-25T10:09:45.087Z,4.55
2022-08-25T10:14:49.335Z,5.55
2022-08-25T10:20:17.384Z,3.88
2022-08-25T10:25:23.279Z,3.17
2022-08-25T10:30:31.403Z,3.92
2022-08-25T10:35:40.546Z,5.95
2022-08-25T10:40:45.809Z,4.97
2022-08-25T10:45:51.361Z,4.05
2022-08-25T10:50:59.640Z,3.90
2022-08-25T10:56:07.943Z,5.70
2022-08-25T11:01:18.444Z,3.42
2022-08-25T11:06:24.762Z,3.75
2022-08-25T11:11:35.051Z,3.83
2022-08-25T11:16:41.732Z,3.00
2022-08-25T11:21:51.293Z,3.58
2022-08-25T11:26:57.244Z,3.90
2022-08-25T11:37:11.246Z,4.32
2022-08-25T11:42:19.325Z,3.70
2022-08-25T11:47:55.745Z,2.63
2022-08-25T11:53:01.412Z,2.90
2022-08-25T12:03:51.029Z,3.40
2022-08-25T12:09:20.592Z,2.78
2022-08-25T12:14:47.994Z,2.42
2022-08-25T12:19:56.824Z,3.30
2022-08-25T12:25:03.518Z,3.85
2022-08-25T12:30:20.807Z,2.60
2022-08-25T12:35:30.616Z,2.70
2022-08-25T12:40:39.195Z,3.25
2022-08-25T12:45:44.325Z,4.22
2022-08-25T12:50:50.358Z,6.93
2022-08-25T12:55:58.135Z,2.50
2022-08-25T13:01:17.382Z,2.28
2022-08-25T13:06:40.847Z,3.35
2022-08-25T13:11:49.725Z,3.55
2022-08-25T13:16:56.263Z,2.50
2022-08-25T13:22:00.101Z,2.50
2022-08-25T13:27:07.807Z,3.63
2022-08-25T13:32:38.298Z,2.60
2022-08-25T13:37:44.154Z,2.90
2022-08-25T13:42:55.635Z,2.70
2022-08-25T13:48:00.584Z,1.80
2022-08-25T13:53:11.352Z,2.10
2022-08-25T13:58:17.466Z,2.05
2022-08-25T14:03:31.698Z,3.30
2022-08-25T14:08:38.611Z,2.08
2022-08-25T14:18:48.509Z,3.15
2022-08-25T14:23:52.120Z,3.55
2022-08-25T14:28:56.986Z,2.10
2022-08-25T14:34:02.893Z,4.55
2022-08-25T14:39:08.917Z,2.72
2022-08-25T14:44:14.224Z,3.10
2022-08-25T14:49:24.814Z,3.30
2022-08-25T14:54:28.874Z,3.45
2022-08-25T14:59:34.231Z,3.03
2022-08-25T15:04:37.524Z,3.97
2022-08-25T15:09:40.895Z,5.85
2022-08-25T15:14:45.729Z,4.20
2022-08-25T15:19:49.833Z,3.17
2022-08-25T15:24:53.009Z,4.70
2022-08-25T15:29:57.456Z,2.58
2022-08-25T15:35:01.440Z,5.27
2022-08-25T15:40:05.360Z,4.05
2022-08-25T15:45:12.761Z,5.03
2022-08-25T15:50:24.169Z,3.53
2022-08-25T15:55:29.346Z,3.30
2022-08-25T16:00:34.104Z,3.85
2022-08-25T16:05:39.054Z,5.07
2022-08-25T16:10:44.774Z,2.97
2022-08-25T16:15:54.256Z,3.60
2022-08-25T16:20:57.952Z,3.03
2022-08-25T16:26:01.629Z,9.82
2022-08-25T16:31:09.635Z,8.07
2022-08-25T16:36:15.789Z,3.60
2022-08-25T16:41:21.301Z,3.27
2022-08-25T16:46:27.054Z,5.07
2022-08-25T16:51:32.540Z,5.20
2022-08-25T16:56:42.444Z,5.47
2022-08-25T17:01:48.568Z,4.28
2022-08-25T17:06:54.106Z,4.68
2022-08-25T17:11:57.607Z,20.02
2022-08-25T17:17:07.087Z,8.13
2022-08-25T17:22:14.656Z,5.75
2022-08-25T17:27:23.728Z,6.20
2022-08-25T17:32:30.389Z,2.45
2022-08-25T17:37:34.431Z,0.00
2022-08-25T17:42:39.803Z,0.00
2022-08-25T17:47:45.021Z,0.00
2022-08-25T17:52:48.181Z,6.57
2022-08-25T17:57:51.341Z,6.65
2022-08-25T18:02:57.214Z,5.32
2022-08-25T18:08:00.495Z,7.65
2022-08-25T18:13:06.942Z,5.90
2022-08-25T18:18:12.463Z,7.40
2022-08-25T18:23:16.505Z,6.47
2022-08-25T18:28:26.494Z,4.70
2022-08-25T18:33:31.768Z,3.75
2022-08-25T18:38:58.220Z,5.35
2022-08-25T18:44:02.538Z,6.72
2022-08-25T18:49:08.571Z,5.25
2022-08-25T18:54:22.792Z,7.05
2022-08-25T18:59:27.066Z,4.30
2022-08-25T19:04:32.655Z,5.03
2022-08-25T19:09:36.201Z,6.50
2022-08-25T19:14:40.243Z,7.00
2022-08-25T19:19:44.776Z,11.57
2022-08-25T19:24:51.743Z,11.73
2022-08-25T19:29:55.178Z,8.50
2022-08-25T19:35:00.790Z,5.57
2022-08-25T19:40:04.672Z,8.43
2022-08-25T19:45:08.833Z,8.20
2022-08-25T19:50:14.770Z,5.75
2022-08-25T19:55:21.041Z,4.10
2022-08-25T20:00:28.593Z,6.22
2022-08-25T20:05:36.440Z,6.43
2022-08-25T20:10:41.878Z,5.28
2022-08-25T20:15:46.216Z,5.57
2022-08-25T20:20:50.906Z,4.43
2022-08-25T20:25:54.446Z,6.28
2022-08-25T20:30:59.451Z,5.20
2022-08-25T20:36:05.665Z,5.30
2022-08-25T20:41:10.685Z,6.53
2022-08-25T20:46:14.749Z,5.65
2022-08-25T20:51:23.537Z,5.88
2022-08-25T20:56:29.834Z,6.40
2022-08-25T21:01:39.703Z,5.82
2022-08-25T21:06:45.450Z,6.05
2022-08-25T21:11:48.779Z,8.00
2022-08-25T21:16:53.282Z,6.57
2022-08-25T21:21:59.757Z,6.90
2022-08-25T21:27:04.625Z,8.73
2022-08-25T21:32:08.208Z,6.05
2022-08-25T21:37:14.328Z,6.53
2022-08-25T21:42:17.798Z,7.57
2022-08-25T21:47:21.693Z,5.85
2022-08-25T21:52:28.274Z,7.30
2022-08-25T21:57:33.465Z,7.80
2022-08-25T22:02:40.502Z,5.60
2022-08-25T22:07:48.676Z,6.13
2022-08-25T22:12:52.950Z,6.25
2022-08-25T22:17:56.293Z,9.55
2022-08-25T22:23:01.401Z,7.68
2022-08-25T22:28:05.450Z,6.18
2022-08-25T22:33:09.112Z,7.05
2022-08-25T22:38:13.854Z,7.18
2022-08-25T22:43:17.332Z,6.03
2022-08-25T22:48:25.293Z,6.82
2022-08-25T22:58:34.663Z,7.97
2022-08-25T23:03:44.395Z,7.45
2022-08-25T23:08:50.180Z,6.28
2022-08-25T23:13:55.813Z,7.30
2022-08-25T23:18:59.125Z,6.53
2022-08-25T23:24:04.673Z,7.10
2022-08-25T23:29:37.117Z,7.00
2022-08-25T23:34:41.615Z,6.63
2022-08-25T23:39:49.813Z,7.93
2022-08-25T23:44:54.635Z,6.63
2022-08-25T23:50:02.797Z,6.45
2022-08-25T23:55:07.806Z,9.82
